createdAt,value
2022-09-07T00:00:27.465Z,17.64
2022-09-07T00:01:27.415Z,17.63
2022-09-07T00:02:27.406Z,17.63
2022-09-07T00:03:27.650Z,17.59
2022-09-07T00:04:27.501Z,17.59
2022-09-07T00:05:27.414Z,17.56
2022-09-07T00:06:27.365Z,17.54
2022-09-07T00:07:27.348Z,17.52
2022-09-07T00:08:27.523Z,17.49
2022-09-07T00:09:27.332Z,17.46
2022-09-07T00:10:27.320Z,17.44
2022-09-07T00:11:30.361Z,17.42
2022-09-07T00:12:27.331Z,17.41
2022-09-07T00:13:27.285Z,17.38
2022-09-07T00:14:27.277Z,17.33
2022-09-07T00:15:27.270Z,17.31
2022-09-07T00:16:27.302Z,17.31
2022-09-07T00:17:27.260Z,17.31
2022-09-07T00:18:27.299Z,17.31
2022-09-07T00:19:27.228Z,17.33
2022-09-07T00:20:27.219Z,17.33
2022-09-07T00:21:27.202Z,17.34
2022-09-07T00:22:27.234Z,17.33
2022-09-07T00:23:27.188Z,17.33
2022-09-07T00:24:27.175Z,17.33
2022-09-07T00:25:28.343Z,17.33
2022-09-07T00:26:30.183Z,17.31
2022-09-07T00:27:27.160Z,17.30
2022-09-07T00:28:27.133Z,17.31
2022-09-07T00:29:27.125Z,17.33
2022-09-07T00:30:27.113Z,17.33
2022-09-07T00:31:27.192Z,17.31
2022-09-07T00:32:27.100Z,17.33
2022-09-07T00:33:27.074Z,17.31
2022-09-07T00:34:27.069Z,17.33
2022-09-07T00:35:27.057Z,17.30
2022-09-07T00:36:27.078Z,17.31
2022-09-07T00:37:27.040Z,17.33
2022-09-07T00:38:27.111Z,17.31
2022-09-07T00:39:27.049Z,17.34
2022-09-07T00:40:27.013Z,17.34
2022-09-07T00:41:30.086Z,17.36
2022-09-07T00:42:27.009Z,17.41
2022-09-07T00:43:26.988Z,17.44
2022-09-07T00:44:26.970Z,17.45
2022-09-07T00:45:26.979Z,17.48
2022-09-07T00:46:26.996Z,17.49
2022-09-07T00:47:26.941Z,17.52
2022-09-07T00:48:27.006Z,17.56
2022-09-07T00:49:26.911Z,17.57
2022-09-07T00:50:26.897Z,17.57
2022-09-07T00:51:26.890Z,17.57
2022-09-07T00:52:26.885Z,17.57
2022-09-07T00:53:26.986Z,17.59
2022-09-07T00:54:26.860Z,17.59
2022-09-07T00:55:26.854Z,17.59
2022-09-07T00:56:29.834Z,17.59
2022-09-07T00:57:26.903Z,17.60
2022-09-07T00:58:26.870Z,17.63
2022-09-07T00:59:26.809Z,17.60
2022-09-07T01:00:35.431Z,17.63
2022-09-07T01:01:26.875Z,17.65
2022-09-07T01:02:26.949Z,17.68
2022-09-07T01:03:27.015Z,17.70
2022-09-07T01:04:26.788Z,17.70
2022-09-07T01:05:26.755Z,17.71
2022-09-07T01:06:26.743Z,17.71
2022-09-07T01:07:26.784Z,17.67
2022-09-07T01:08:26.803Z,17.68
2022-09-07T01:09:26.717Z,17.67
2022-09-07T01:10:26.714Z,17.63
2022-09-07T01:11:29.719Z,17.57
2022-09-07T01:12:26.695Z,17.57
2022-09-07T01:13:26.680Z,17.57
2022-09-07T01:14:26.684Z,17.56
2022-09-07T01:15:26.647Z,17.56
2022-09-07T01:16:26.688Z,17.56
2022-09-07T01:17:26.634Z,17.56
2022-09-07T01:18:26.759Z,17.56
2022-09-07T01:19:26.707Z,17.52
2022-09-07T01:20:29.009Z,17.52
2022-09-07T01:21:26.596Z,17.52
2022-09-07T01:22:27.524Z,17.52
2022-09-07T01:23:26.636Z,17.51
2022-09-07T01:24:27.021Z,17.46
2022-09-07T01:28:07.735Z,17.36
2022-09-07T01:29:07.720Z,17.31
2022-09-07T01:37:23.735Z,17.16
2022-09-07T01:42:11.736Z,17.09
2022-09-07T01:43:11.382Z,17.06
2022-09-07T01:44:11.329Z,17.02
2022-09-07T01:45:11.444Z,17.01
2022-09-07T01:46:11.430Z,16.99
2022-09-07T01:47:11.423Z,16.97
2022-09-07T01:48:11.287Z,16.96
2022-09-07T01:49:11.609Z,16.94
2022-09-07T01:50:11.280Z,16.93
2022-09-07T01:51:11.248Z,16.93
2022-09-07T01:52:11.250Z,16.91
2022-09-07T01:53:11.276Z,16.91
2022-09-07T01:54:11.279Z,16.90
2022-09-07T01:55:14.334Z,16.89
2022-09-07T01:56:11.241Z,16.87
2022-09-07T01:57:11.209Z,16.84
2022-09-07T01:58:11.193Z,16.83
2022-09-07T01:59:11.201Z,16.76
2022-09-07T02:00:11.238Z,16.72
2022-09-07T02:01:11.182Z,16.69
2022-09-07T02:02:11.155Z,16.68
2022-09-07T02:03:11.262Z,16.65
2022-09-07T02:04:11.155Z,16.65
2022-09-07T02:05:11.163Z,16.61
2022-09-07T02:06:11.149Z,16.61
2022-09-07T02:07:11.151Z,16.58
2022-09-07T02:08:11.083Z,16.53
2022-09-07T02:09:11.085Z,16.54
2022-09-07T02:10:14.138Z,16.51
2022-09-07T02:11:11.087Z,16.51
2022-09-07T02:12:11.077Z,16.51
2022-09-07T02:13:11.087Z,16.51
2022-09-07T02:14:11.104Z,16.53
2022-09-07T02:15:11.026Z,16.53
2022-09-07T02:16:11.199Z,16.54
2022-09-07T02:17:11.017Z,16.56
2022-09-07T02:18:11.023Z,16.57
2022-09-07T02:19:11.031Z,16.58
2022-09-07T02:20:10.961Z,16.58
2022-09-07T02:21:10.955Z,16.60
2022-09-07T02:22:10.953Z,16.60
2022-09-07T02:23:10.981Z,16.61
2022-09-07T02:24:10.929Z,16.61
2022-09-07T02:25:13.923Z,16.60
2022-09-07T02:26:10.923Z,16.58
2022-09-07T02:27:10.919Z,16.56
2022-09-07T02:28:10.887Z,16.53
2022-09-07T02:29:10.889Z,16.50
2022-09-07T02:30:10.998Z,16.47
2022-09-07T02:31:10.965Z,16.46
2022-09-07T02:32:10.915Z,16.46
2022-09-07T02:33:10.851Z,16.42
2022-09-07T02:35:43.743Z,16.46
2022-09-07T02:36:51.265Z,16.42
2022-09-07T02:37:43.656Z,16.43
2022-09-07T02:38:43.727Z,16.43
2022-09-07T02:39:43.677Z,16.46
2022-09-07T02:40:43.665Z,16.50
2022-09-07T02:41:43.670Z,16.53
2022-09-07T02:42:43.601Z,16.56
2022-09-07T02:43:43.606Z,16.58
2022-09-07T02:44:43.698Z,16.58
2022-09-07T02:45:43.578Z,16.61
2022-09-07T02:46:43.698Z,16.64
2022-09-07T02:47:43.643Z,16.66
2022-09-07T02:48:46.525Z,16.68
2022-09-07T02:49:43.598Z,16.69
2022-09-07T02:50:43.539Z,16.69
2022-09-07T02:51:43.551Z,16.71
2022-09-07T02:52:43.534Z,16.71
2022-09-07T02:53:43.523Z,16.75
2022-09-07T02:54:43.486Z,16.75
2022-09-07T02:55:43.468Z,16.74
2022-09-07T02:56:43.484Z,16.72
2022-09-07T02:59:37.896Z,16.75
2022-09-07T03:00:37.581Z,16.75
2022-09-07T03:01:37.437Z,16.76
2022-09-07T03:02:37.445Z,16.75
2022-09-07T03:03:37.334Z,16.76
2022-09-07T03:04:37.367Z,16.79
2022-09-07T03:05:37.312Z,16.79
2022-09-07T03:06:37.291Z,16.83
2022-09-07T03:09:31.268Z,16.84
2022-09-07T03:10:31.278Z,16.86
2022-09-07T03:11:31.207Z,16.89
2022-09-07T03:12:31.170Z,16.87
2022-09-07T03:13:31.293Z,16.89
2022-09-07T03:14:31.474Z,16.90
2022-09-07T03:15:31.208Z,16.90
2022-09-07T03:16:31.140Z,16.94
2022-09-07T03:17:38.124Z,16.91
2022-09-07T03:20:08.838Z,16.96
2022-09-07T03:24:14.344Z,16.99
2022-09-07T03:25:12.867Z,16.96
2022-09-07T03:26:19.831Z,16.91
2022-09-07T03:27:12.781Z,16.93
2022-09-07T03:29:53.760Z,16.89
2022-09-07T03:30:53.731Z,16.86
2022-09-07T03:31:54.885Z,16.86
2022-09-07T03:32:53.436Z,16.87
2022-09-07T03:33:53.444Z,16.86
2022-09-07T03:34:53.409Z,16.87
2022-09-07T03:35:53.408Z,16.86
2022-09-07T03:36:53.419Z,16.86
2022-09-07T03:37:53.404Z,16.84
2022-09-07T03:38:53.368Z,16.83
2022-09-07T03:39:53.409Z,16.79
2022-09-07T03:40:53.339Z,16.79
2022-09-07T03:41:53.379Z,16.78
2022-09-07T03:42:56.403Z,16.78
2022-09-07T03:43:53.329Z,16.76
2022-09-07T03:44:53.295Z,16.78
2022-09-07T03:45:53.322Z,16.75
2022-09-07T03:46:53.342Z,16.75
2022-09-07T03:47:53.254Z,16.75
2022-09-07T03:48:53.260Z,16.75
2022-09-07T03:49:53.344Z,16.75
2022-09-07T03:50:53.292Z,16.76
2022-09-07T03:51:53.292Z,16.76
2022-09-07T03:52:53.258Z,16.76
2022-09-07T03:53:53.215Z,16.79
2022-09-07T03:54:53.214Z,16.81
2022-09-07T03:55:53.166Z,16.83
2022-09-07T03:56:53.269Z,16.87
2022-09-07T03:57:56.295Z,16.87
2022-09-07T03:58:54.009Z,16.90
2022-09-07T04:00:14.219Z,16.91
2022-09-07T04:00:53.427Z,16.93
2022-09-07T04:01:53.244Z,16.97
2022-09-07T04:02:53.139Z,16.97
2022-09-07T04:05:49.653Z,17.08
2022-09-07T04:06:49.565Z,17.09
2022-09-07T04:07:49.571Z,17.12
2022-09-07T04:08:49.611Z,17.14
2022-09-07T04:09:49.636Z,17.14
2022-09-07T04:10:49.544Z,17.15
2022-09-07T04:11:49.545Z,17.15
2022-09-07T04:12:49.682Z,17.15
2022-09-07T04:13:49.491Z,17.15
2022-09-07T04:14:56.980Z,17.16
2022-09-07T04:25:34.591Z,17.15
2022-09-07T04:26:34.366Z,17.12
2022-09-07T04:27:34.423Z,17.12
2022-09-07T04:28:34.455Z,17.12
2022-09-07T04:32:00.764Z,17.12
2022-09-07T04:32:59.669Z,17.09
2022-09-07T04:33:59.681Z,17.09
2022-09-07T04:34:59.915Z,17.08
2022-09-07T04:35:59.629Z,17.09
2022-09-07T04:36:59.640Z,17.09
2022-09-07T04:37:59.615Z,17.08
2022-09-07T04:38:59.631Z,17.08
2022-09-07T04:39:59.677Z,17.08
2022-09-07T04:40:59.586Z,17.06
2022-09-07T04:42:00.056Z,17.06
2022-09-07T04:46:59.637Z,17.01
2022-09-07T04:47:59.500Z,16.97
2022-09-07T04:48:59.455Z,16.99
2022-09-07T04:49:59.420Z,16.99
2022-09-07T04:51:02.879Z,17.01
2022-09-07T04:51:59.410Z,17.01
2022-09-07T04:52:59.977Z,17.01
2022-09-07T04:53:59.391Z,17.01
2022-09-07T04:54:59.396Z,17.02
2022-09-07T04:57:56.177Z,17.08
2022-09-07T04:58:54.252Z,17.06
2022-09-07T04:59:54.841Z,17.06
2022-09-07T05:03:35.009Z,17.09
2022-09-07T05:04:34.787Z,17.08
2022-09-07T05:05:34.787Z,17.06
2022-09-07T05:06:34.767Z,17.11
2022-09-07T05:07:34.756Z,17.11
2022-09-07T05:11:46.885Z,17.09
2022-09-07T05:12:46.829Z,17.11
2022-09-07T05:13:46.813Z,17.08
2022-09-07T05:40:04.591Z,16.74
2022-09-07T05:43:29.259Z,16.75
2022-09-07T13:25:54.815Z,28.00
2022-09-07T13:30:18.715Z,28.44
2022-09-07T13:31:18.771Z,28.35
2022-09-07T13:32:18.971Z,28.22
2022-09-07T13:35:28.034Z,28.32
2022-09-07T13:37:53.851Z,28.52
2022-09-07T13:40:19.716Z,28.57
2022-09-07T13:42:42.256Z,28.62
2022-09-07T13:45:24.241Z,28.63
2022-09-07T13:46:24.271Z,28.67
2022-09-07T13:49:17.632Z,28.72
2022-09-07T13:52:00.661Z,28.74
2022-09-07T13:55:41.863Z,28.82
2022-09-07T13:56:42.754Z,28.89
2022-09-07T13:57:48.807Z,28.98
2022-09-07T14:00:21.662Z,29.04
2022-09-07T14:01:27.036Z,29.02
2022-09-07T14:02:19.972Z,29.10
2022-09-07T14:03:19.881Z,29.14
2022-09-07T14:04:19.867Z,29.16
2022-09-07T14:06:41.880Z,29.14
2022-09-07T14:07:41.709Z,29.19
2022-09-07T14:10:19.325Z,29.16
2022-09-07T14:11:26.445Z,29.07
2022-09-07T14:13:41.169Z,29.02
2022-09-07T14:14:41.139Z,28.97
2022-09-07T14:15:41.121Z,28.98
2022-09-07T14:16:41.195Z,29.05
2022-09-07T14:17:41.096Z,29.10
2022-09-07T14:18:41.092Z,29.13
2022-09-07T14:19:41.087Z,29.10
2022-09-07T14:20:48.093Z,29.05
2022-09-07T14:21:41.056Z,28.97
2022-09-07T14:22:53.245Z,28.98
2022-09-07T14:23:41.036Z,28.98
2022-09-07T14:24:48.556Z,29.02
2022-09-07T14:27:55.180Z,29.17
2022-09-07T14:29:02.146Z,29.17
2022-09-07T14:29:55.144Z,29.08
2022-09-07T14:30:55.189Z,28.97
2022-09-07T14:31:55.098Z,28.82
2022-09-07T14:32:55.095Z,28.72
2022-09-07T14:33:55.149Z,28.66
2022-09-07T14:35:02.075Z,28.57
2022-09-07T14:35:55.077Z,28.57
2022-09-07T14:37:02.556Z,28.49
2022-09-07T14:39:33.277Z,28.62
2022-09-07T14:40:41.655Z,28.60
2022-09-07T14:43:28.522Z,28.75
2022-09-07T14:44:33.981Z,28.72
2022-09-07T14:45:26.929Z,28.69
2022-09-07T14:46:27.017Z,28.69
2022-09-07T14:47:27.407Z,28.63
2022-09-07T14:48:32.320Z,28.44
2022-09-07T14:49:26.899Z,28.33
2022-09-07T14:50:35.183Z,28.20
2022-09-07T14:51:36.450Z,28.15
2022-09-07T14:52:26.872Z,28.12
2022-09-07T14:53:34.901Z,28.07
2022-09-07T14:54:26.847Z,27.96
2022-09-07T14:56:38.871Z,27.83
2022-09-07T14:57:26.838Z,27.77
2022-09-07T14:58:33.910Z,27.73
2022-09-07T14:59:34.327Z,27.70
2022-09-07T15:00:26.812Z,27.63
2022-09-07T15:01:42.290Z,27.59
2022-09-07T15:02:26.907Z,27.60
2022-09-07T15:04:26.826Z,27.54
2022-09-07T15:05:26.731Z,27.48
2022-09-07T15:07:27.750Z,27.48
2022-09-07T15:08:26.835Z,27.48
2022-09-07T15:09:26.684Z,27.40
2022-09-07T15:10:26.671Z,27.39
2022-09-07T15:11:33.199Z,27.40
2022-09-07T15:12:38.892Z,27.36
2022-09-07T15:13:26.652Z,27.32
2022-09-07T15:14:26.640Z,27.27
2022-09-07T15:15:27.012Z,27.25
2022-09-07T15:16:26.650Z,27.26
2022-09-07T15:18:27.632Z,27.25
2022-09-07T15:19:26.580Z,27.20
2022-09-07T15:20:26.589Z,27.17
2022-09-07T15:21:26.561Z,27.17
2022-09-07T15:22:26.549Z,27.12
2022-09-07T15:23:35.621Z,27.14
2022-09-07T15:24:26.531Z,27.14
2022-09-07T15:25:26.521Z,27.15
2022-09-07T15:27:27.554Z,27.10
2022-09-07T15:29:29.085Z,27.00
2022-09-07T15:30:26.483Z,26.96
2022-09-07T15:31:44.543Z,26.93
2022-09-07T15:32:27.496Z,26.92
2022-09-07T15:33:26.436Z,26.89
2022-09-07T15:34:26.423Z,26.88
2022-09-07T15:35:26.417Z,26.88
2022-09-07T15:38:59.460Z,26.80
2022-09-07T15:39:03.404Z,26.75
2022-09-07T15:39:56.332Z,26.73
2022-09-07T15:41:20.790Z,26.68
2022-09-07T15:41:49.719Z,26.65
2022-09-07T15:43:16.395Z,26.66
2022-09-07T15:43:48.704Z,26.62
2022-09-07T15:44:50.339Z,26.55
2022-09-07T15:45:48.719Z,26.51
2022-09-07T15:47:52.079Z,26.45
2022-09-07T15:48:49.190Z,26.37
2022-09-07T15:49:51.369Z,26.34
2022-09-07T15:50:51.751Z,26.23
2022-09-07T15:52:49.616Z,26.15
2022-09-07T15:54:49.589Z,26.16
2022-09-07T15:55:48.587Z,26.16
2022-09-07T15:57:56.842Z,26.19
2022-09-07T15:58:49.547Z,26.15
2022-09-07T15:59:48.641Z,26.18
2022-09-07T16:00:48.892Z,26.16
2022-09-07T16:01:53.120Z,26.16
2022-09-07T16:03:49.592Z,26.13
2022-09-07T16:04:48.643Z,26.07
2022-09-07T16:05:53.145Z,26.00
2022-09-07T16:06:48.575Z,25.99
2022-09-07T16:08:51.514Z,25.91
2022-09-07T16:09:48.888Z,25.84
2022-09-07T16:11:04.453Z,25.80
2022-09-07T16:11:50.932Z,25.75
2022-09-07T16:13:12.095Z,25.75
2022-09-07T16:13:48.390Z,25.68
2022-09-07T16:14:48.758Z,25.62
2022-09-07T16:15:48.576Z,25.55
2022-09-07T16:17:53.909Z,25.53
2022-09-07T16:18:48.393Z,25.51
2022-09-07T16:19:48.328Z,25.50
2022-09-07T16:20:52.930Z,25.47
2022-09-07T16:21:48.373Z,25.47
2022-09-07T16:23:49.281Z,25.41
2022-09-07T16:24:48.270Z,25.38
2022-09-07T16:25:48.262Z,25.35
2022-09-07T16:26:48.259Z,25.32
2022-09-07T16:27:48.249Z,25.25
2022-09-07T16:28:48.233Z,25.22
2022-09-07T16:29:48.223Z,25.18
2022-09-07T16:30:48.333Z,25.17
2022-09-07T16:32:49.253Z,25.10
2022-09-07T16:33:48.274Z,25.04
2022-09-07T16:34:48.167Z,24.99
2022-09-07T16:35:51.156Z,24.92
2022-09-07T16:36:48.156Z,24.88
2022-09-07T16:38:49.156Z,24.78
2022-09-07T16:39:48.141Z,24.68
2022-09-07T16:40:48.101Z,24.58
2022-09-07T16:41:55.107Z,24.51
2022-09-07T16:42:48.218Z,24.45
2022-09-07T16:43:48.085Z,24.33
2022-09-07T16:46:02.202Z,24.24
2022-09-07T16:46:04.978Z,24.16
2022-09-07T16:46:48.136Z,24.08
2022-09-07T16:47:48.408Z,24.02
2022-09-07T16:48:48.033Z,23.92
2022-09-07T16:49:48.014Z,23.84
2022-09-07T16:50:51.002Z,23.78
2022-09-07T16:51:49.857Z,23.76
2022-09-07T16:52:48.025Z,23.73
2022-09-07T16:53:47.969Z,23.68
2022-09-07T16:57:20.576Z,23.39
2022-09-07T16:58:36.744Z,23.28
2022-09-07T16:59:21.421Z,23.20
2022-09-07T17:01:20.477Z,23.05
2022-09-07T17:02:20.388Z,22.99
2022-09-07T17:03:20.380Z,22.93
2022-09-07T17:04:20.396Z,22.88
2022-09-07T17:05:20.351Z,22.81
2022-09-07T17:06:20.439Z,22.73
2022-09-07T17:07:20.331Z,22.68
2022-09-07T17:08:20.388Z,22.59
2022-09-07T17:09:20.337Z,22.45
2022-09-07T17:10:23.303Z,22.39
2022-09-07T17:11:20.310Z,22.39
2022-09-07T17:12:20.284Z,22.39
2022-09-07T17:13:20.274Z,22.38
2022-09-07T17:14:20.261Z,22.38
2022-09-07T17:15:20.258Z,22.38
2022-09-07T17:16:20.283Z,22.41
2022-09-07T17:17:20.225Z,22.38
2022-09-07T17:19:28.988Z,22.33
2022-09-07T17:19:36.658Z,22.32
2022-09-07T17:20:20.196Z,22.32
2022-09-07T17:21:20.186Z,22.29
2022-09-07T17:22:20.183Z,22.28
2022-09-07T17:23:21.344Z,22.30
2022-09-07T17:24:20.189Z,22.33
2022-09-07T17:25:23.144Z,22.36
2022-09-07T17:26:20.150Z,22.41
2022-09-07T17:27:20.127Z,22.43
2022-09-07T17:28:20.135Z,22.47
2022-09-07T17:29:20.152Z,22.51
2022-09-07T17:30:20.736Z,22.54
2022-09-07T17:32:25.035Z,22.55
2022-09-07T17:33:20.114Z,22.54
2022-09-07T17:34:20.134Z,22.55
2022-09-07T17:35:20.043Z,22.50
2022-09-07T17:36:20.026Z,22.45
2022-09-07T17:37:20.026Z,22.39
2022-09-07T17:39:21.034Z,22.18
2022-09-07T17:40:24.385Z,22.11
2022-09-07T17:41:19.997Z,21.99
2022-09-07T17:42:20.104Z,21.79
2022-09-07T17:44:20.946Z,21.48
2022-09-07T17:45:19.935Z,21.29
2022-09-07T17:46:19.950Z,21.05
2022-09-07T17:47:19.919Z,20.77
2022-09-07T17:48:19.911Z,20.52
2022-09-07T17:49:19.893Z,20.36
2022-09-07T17:50:19.990Z,20.18
2022-09-07T17:52:19.868Z,19.47
2022-09-07T17:53:19.854Z,19.12
2022-09-07T17:54:19.843Z,18.96
2022-09-07T17:55:22.926Z,18.90
2022-09-07T17:56:19.842Z,18.90
2022-09-07T17:57:19.810Z,18.89
2022-09-07T17:58:19.801Z,18.93
2022-09-07T18:00:20.783Z,18.89
2022-09-07T18:01:19.821Z,18.83
2022-09-07T18:02:19.811Z,18.75
2022-09-07T18:04:19.838Z,18.59
2022-09-07T18:05:19.791Z,18.50
2022-09-07T18:06:19.825Z,18.49
2022-09-07T18:07:19.775Z,18.50
2022-09-07T18:08:19.766Z,18.50
2022-09-07T18:09:19.985Z,18.50
2022-09-07T18:10:22.927Z,18.50
2022-09-07T18:12:20.749Z,18.55
2022-09-07T18:13:25.524Z,18.56
2022-09-07T18:14:20.700Z,18.58
2022-09-07T18:15:19.670Z,18.50
2022-09-07T18:16:19.689Z,18.43
2022-09-07T18:17:19.799Z,18.28
2022-09-07T18:18:19.686Z,18.23
2022-09-07T18:19:19.641Z,18.23
2022-09-07T18:20:19.632Z,18.20
2022-09-07T18:21:19.609Z,18.13
2022-09-07T18:22:19.637Z,18.04
2022-09-07T18:23:19.615Z,17.94
2022-09-07T18:24:19.594Z,17.94
2022-09-07T18:25:22.562Z,17.94
2022-09-07T18:26:19.593Z,17.95
2022-09-07T18:27:19.565Z,17.97
2022-09-07T18:29:28.625Z,18.00
2022-09-07T18:30:19.532Z,17.98
2022-09-07T18:31:19.578Z,17.89
2022-09-07T18:32:19.510Z,17.85
2022-09-07T18:33:19.618Z,17.82
2022-09-07T18:34:19.495Z,17.72
2022-09-07T18:35:19.466Z,17.63
2022-09-07T18:36:19.463Z,17.64
2022-09-07T18:37:19.682Z,17.64
2022-09-07T18:38:19.428Z,17.65
2022-09-07T18:39:19.454Z,17.60
2022-09-07T18:40:22.476Z,17.65
2022-09-07T18:41:19.418Z,17.68
2022-09-07T18:42:19.439Z,17.68
2022-09-07T18:43:19.380Z,17.72
2022-09-07T18:45:28.094Z,17.72
2022-09-07T18:46:19.442Z,17.71
2022-09-07T18:47:27.891Z,17.71
2022-09-07T18:48:19.331Z,17.70
2022-09-07T18:49:19.330Z,17.60
2022-09-07T18:50:19.314Z,17.52
2022-09-07T18:51:19.627Z,17.45
2022-09-07T18:53:20.298Z,17.38
2022-09-07T18:54:19.292Z,17.34
2022-09-07T18:55:22.263Z,17.38
2022-09-07T18:56:19.283Z,17.34
2022-09-07T18:57:26.599Z,17.34
2022-09-07T18:58:19.258Z,17.29
2022-09-07T18:59:19.219Z,17.24
2022-09-07T19:00:19.195Z,17.23
2022-09-07T19:01:19.247Z,17.22
2022-09-07T19:02:19.253Z,17.23
2022-09-07T19:03:19.219Z,17.24
2022-09-07T19:04:19.537Z,17.26
2022-09-07T19:06:20.148Z,17.29
2022-09-07T19:07:19.160Z,17.31
2022-09-07T19:08:20.116Z,17.31
2022-09-07T19:09:19.127Z,17.34
2022-09-07T19:10:22.101Z,17.34
2022-09-07T19:11:19.111Z,17.39
2022-09-07T19:12:19.140Z,17.38
2022-09-07T19:13:19.126Z,17.30
2022-09-07T19:14:19.102Z,17.22
2022-09-07T19:15:19.051Z,17.16
2022-09-07T19:16:19.100Z,17.14
2022-09-07T19:17:19.061Z,17.09
2022-09-07T19:18:19.171Z,16.99
2022-09-07T19:19:19.003Z,16.91
2022-09-07T19:20:19.000Z,16.87
2022-09-07T19:21:19.047Z,16.89
2022-09-07T19:22:19.020Z,16.89
2022-09-07T19:23:18.957Z,16.89
2022-09-07T19:24:18.947Z,16.87
2022-09-07T19:25:21.963Z,16.84
2022-09-07T19:26:18.936Z,16.84
2022-09-07T19:27:18.921Z,16.84
2022-09-07T19:28:25.935Z,16.89
2022-09-07T19:29:18.893Z,16.87
2022-09-07T19:30:18.891Z,16.90
2022-09-07T19:31:18.892Z,16.91
2022-09-07T19:32:18.891Z,16.91
2022-09-07T19:33:18.866Z,16.93
2022-09-07T19:34:18.884Z,16.96
2022-09-07T19:35:18.833Z,16.99
2022-09-07T19:36:18.902Z,16.97
2022-09-07T19:37:18.822Z,16.96
2022-09-07T19:38:18.796Z,16.97
2022-09-07T19:39:18.834Z,17.04
2022-09-07T19:40:21.813Z,17.06
2022-09-07T19:41:18.796Z,17.11
2022-09-07T19:42:18.805Z,17.14
2022-09-07T19:43:18.767Z,17.12
2022-09-07T19:44:18.745Z,17.12
2022-09-07T19:45:18.734Z,17.11
2022-09-07T19:46:24.128Z,17.09
2022-09-07T19:47:18.765Z,17.06
2022-09-07T19:48:18.742Z,17.01
2022-09-07T19:49:18.694Z,16.97
2022-09-07T19:50:18.721Z,16.94
2022-09-07T19:51:18.670Z,16.91
2022-09-07T19:52:18.701Z,16.87
2022-09-07T19:53:18.649Z,16.83
2022-09-07T19:54:18.676Z,16.81
2022-09-07T19:55:21.639Z,16.79
2022-09-07T19:56:18.633Z,16.81
2022-09-07T19:57:18.599Z,16.81
2022-09-07T19:58:18.646Z,16.79
2022-09-07T19:59:18.587Z,16.79
2022-09-07T20:00:18.728Z,16.83
2022-09-07T20:01:18.626Z,16.86
2022-09-07T20:02:18.561Z,16.86
2022-09-07T20:03:18.534Z,16.89
2022-09-07T20:04:20.450Z,16.90
2022-09-07T20:05:18.545Z,16.93
2022-09-07T20:06:18.502Z,16.93
2022-09-07T20:07:25.517Z,16.94
2022-09-07T20:08:18.491Z,16.93
2022-09-07T20:09:18.481Z,16.93
2022-09-07T20:10:21.506Z,16.96
2022-09-07T20:11:18.477Z,16.97
2022-09-07T20:12:25.488Z,17.02
2022-09-07T20:13:18.441Z,17.04
2022-09-07T20:14:18.440Z,17.08
2022-09-07T20:15:18.420Z,17.05
2022-09-07T20:16:25.963Z,17.05
2022-09-07T20:17:25.929Z,17.06
2022-09-07T20:18:18.385Z,17.08
2022-09-07T20:19:18.365Z,17.09
2022-09-07T20:20:18.358Z,17.09
2022-09-07T20:21:18.393Z,17.12
2022-09-07T20:22:18.343Z,17.12
2022-09-07T20:23:18.318Z,17.12
2022-09-07T20:24:18.311Z,17.11
2022-09-07T20:25:21.306Z,17.12
2022-09-07T20:26:18.312Z,17.11
2022-09-07T20:27:25.305Z,17.06
2022-09-07T20:28:18.267Z,17.05
2022-09-07T20:29:33.809Z,17.06
2022-09-07T20:30:18.253Z,17.05
2022-09-07T20:31:18.313Z,17.06
2022-09-07T20:32:18.221Z,17.05
2022-09-07T20:33:18.224Z,17.05
2022-09-07T20:34:18.204Z,17.04
2022-09-07T20:38:14.622Z,17.05
2022-09-07T20:39:14.607Z,17.04
2022-09-07T20:55:38.521Z,16.89
2022-09-07T21:03:24.934Z,16.84
2022-09-07T21:06:00.600Z,16.83
2022-09-07T21:08:38.318Z,16.76
2022-09-07T21:09:38.301Z,16.72
2022-09-07T21:10:45.292Z,16.69
2022-09-07T21:16:36.459Z,16.75
2022-09-07T21:20:02.845Z,16.74
2022-09-07T21:21:23.668Z,16.74
2022-09-07T21:29:19.852Z,16.75
2022-09-07T21:39:32.633Z,16.91
2022-09-07T21:46:45.779Z,16.51
2022-09-07T21:47:45.714Z,16.47
2022-09-07T21:48:52.697Z,16.47
2022-09-07T21:49:52.685Z,16.47
2022-09-07T21:50:52.670Z,16.47
2022-09-07T21:51:52.657Z,16.46
2022-09-07T21:52:52.778Z,16.47
2022-09-07T21:53:45.609Z,16.49
2022-09-07T21:54:45.617Z,16.49
2022-09-07T21:55:45.595Z,16.49
2022-09-07T21:56:46.789Z,16.50
2022-09-07T21:57:45.596Z,16.49
2022-09-07T21:58:45.619Z,16.49
2022-09-07T21:59:48.561Z,16.47
2022-09-07T22:00:45.586Z,16.47
2022-09-07T22:01:45.575Z,16.46
2022-09-07T22:02:45.530Z,16.49
2022-09-07T22:03:45.520Z,16.51
2022-09-07T22:04:45.510Z,16.54
2022-09-07T22:05:45.488Z,16.56
2022-09-07T22:06:45.479Z,16.54
2022-09-07T22:07:45.471Z,16.57
2022-09-07T22:08:45.474Z,16.58
2022-09-07T22:09:45.502Z,16.58
2022-09-07T22:10:45.444Z,16.58
2022-09-07T22:11:46.282Z,16.61
2022-09-07T22:12:45.417Z,16.61
2022-09-07T22:13:45.414Z,16.61
2022-09-07T22:14:48.514Z,16.65
2022-09-07T22:15:45.478Z,16.65
2022-09-07T22:16:45.391Z,16.64
2022-09-07T22:17:46.413Z,16.64
2022-09-07T22:18:45.394Z,16.66
2022-09-07T22:19:45.344Z,16.61
2022-09-07T22:20:45.339Z,16.64
2022-09-07T22:21:45.327Z,16.64
2022-09-07T22:22:45.320Z,16.65
2022-09-07T22:23:45.358Z,16.65
2022-09-07T22:24:45.285Z,16.66
2022-09-07T22:25:45.285Z,16.65
2022-09-07T22:26:45.274Z,16.69
2022-09-07T22:27:45.265Z,16.69
2022-09-07T22:28:45.247Z,16.71
2022-09-07T22:29:48.239Z,16.71
2022-09-07T22:30:45.251Z,16.72
2022-09-07T22:31:45.335Z,16.75
2022-09-07T22:32:45.211Z,16.76
2022-09-07T22:33:52.320Z,16.76
2022-09-07T22:34:45.192Z,16.76
2022-09-07T22:35:45.183Z,16.75
2022-09-07T22:36:45.169Z,16.76
2022-09-07T22:37:45.170Z,16.74
2022-09-07T22:38:45.150Z,16.75
2022-09-07T22:39:45.235Z,16.76
2022-09-07T22:40:45.135Z,16.79
2022-09-07T22:41:45.120Z,16.79
2022-09-07T22:42:45.116Z,16.79
2022-09-07T22:43:45.094Z,16.76
2022-09-07T22:44:48.198Z,16.75
2022-09-07T22:45:45.096Z,16.74
2022-09-07T22:46:45.126Z,16.69
2022-09-07T22:47:45.056Z,16.69
2022-09-07T22:48:45.044Z,16.65
2022-09-07T22:49:45.075Z,16.61
2022-09-07T22:50:45.032Z,16.64
2022-09-07T22:51:45.017Z,16.60
2022-09-07T22:52:45.106Z,16.58
2022-09-07T22:53:44.987Z,16.60
2022-09-07T22:54:44.980Z,16.61
2022-09-07T22:55:44.967Z,16.60
2022-09-07T22:56:44.960Z,16.61
2022-09-07T22:57:44.967Z,16.64
2022-09-07T22:58:44.940Z,16.58
2022-09-07T22:59:47.929Z,16.54
2022-09-07T23:00:44.939Z,16.53
2022-09-07T23:01:44.916Z,16.51
2022-09-07T23:02:44.998Z,16.50
2022-09-07T23:03:45.040Z,16.51
2022-09-07T23:04:44.971Z,16.50
2022-09-07T23:05:44.872Z,16.50
2022-09-07T23:06:44.864Z,16.50
2022-09-07T23:07:44.872Z,16.49
2022-09-07T23:08:44.837Z,16.46
2022-09-07T23:09:51.842Z,16.43
2022-09-07T23:10:44.815Z,16.41
2022-09-07T23:13:22.544Z,16.39
2022-09-07T23:20:28.006Z,16.42
2022-09-07T23:25:34.539Z,16.47
2022-09-07T23:26:34.490Z,16.46
2022-09-07T23:29:12.170Z,16.50
2022-09-07T23:30:12.167Z,16.47
2022-09-07T23:31:12.225Z,16.50
2022-09-07T23:32:12.126Z,16.50
2022-09-07T23:33:12.107Z,16.50
2022-09-07T23:34:12.116Z,16.49
2022-09-07T23:35:16.463Z,16.47
2022-09-07T23:36:12.117Z,16.46
2022-09-07T23:37:12.070Z,16.43
2022-09-07T23:40:05.500Z,16.43
2022-09-07T23:42:58.916Z,16.39
2022-09-07T23:47:18.171Z,16.42
2022-09-07T23:52:33.383Z,16.43
2022-09-07T23:58:06.360Z,16.41
2022-09-07T23:59:11.725Z,16.36
